sensor_id;sensor_type;location;lat;lon;timestamp;P1;durP1;ratioP1;P2;durP2;ratioP2
13605;SDS011;6874;52.084;5.090;2023-05-29T00:01:12;40.60;;;39.30;;
13605;SDS011;6874;52.084;5.090;2023-05-29T00:03:37;35.13;;;34.03;;
13605;SDS011;6874;52.084;5.090;2023-05-29T00:06:03;31.13;;;30.13;;
13605;SDS011;6874;52.084;5.090;2023-05-29T00:08:30;28.60;;;27.70;;
13605;SDS011;6874;52.084;5.090;2023-05-29T00:10:56;24.83;;;24.03;;
13605;SDS011;6874;52.084;5.090;2023-05-29T00:13:22;23.83;;;23.10;;
13605;SDS011;6874;52.084;5.090;2023-05-29T00:15:48;20.60;;;19.97;;
13605;SDS011;6874;52.084;5.090;2023-05-29T00:18:13;20.93;;;20.27;;
13605;SDS011;6874;52.084;5.090;2023-05-29T00:20:39;19.83;;;19.23;;
13605;SDS011;6874;52.084;5.090;2023-05-29T00:23:04;16.27;;;15.77;;
13605;SDS011;6874;52.084;5.090;2023-05-29T00:25:31;17.60;;;17.07;;
13605;SDS011;6874;52.084;5.090;2023-05-29T00:27:57;15.47;;;14.97;;
13605;SDS011;6874;52.084;5.090;2023-05-29T00:30:23;16.17;;;15.67;;
13605;SDS011;6874;52.084;5.090;2023-05-29T00:32:48;15.73;;;15.27;;
13605;SDS011;6874;52.084;5.090;2023-05-29T00:35:14;16.93;;;16.40;;
13605;SDS011;6874;52.084;5.090;2023-05-29T00:37:40;15.90;;;15.40;;
13605;SDS011;6874;52.084;5.090;2023-05-29T00:40:06;16.60;;;16.10;;
13605;SDS011;6874;52.084;5.090;2023-05-29T00:42:32;16.20;;;15.70;;
13605;SDS011;6874;52.084;5.090;2023-05-29T00:44:57;16.23;;;15.73;;
13605;SDS011;6874;52.084;5.090;2023-05-29T00:47:23;17.47;;;16.97;;
13605;SDS011;6874;52.084;5.090;2023-05-29T00:49:49;16.50;;;16.00;;
13605;SDS011;6874;52.084;5.090;2023-05-29T00:52:16;16.40;;;15.90;;
13605;SDS011;6874;52.084;5.090;2023-05-29T00:54:44;17.30;;;16.77;;
13605;SDS011;6874;52.084;5.090;2023-05-29T00:57:12;18.13;;;17.57;;
13605;SDS011;6874;52.084;5.090;2023-05-29T00:59:41;17.77;;;17.23;;
13605;SDS011;6874;52.084;5.090;2023-05-29T01:02:07;17.57;;;17.07;;
13605;SDS011;6874;52.084;5.090;2023-05-29T01:04:33;17.60;;;17.07;;
13605;SDS011;6874;52.084;5.090;2023-05-29T01:07:00;18.13;;;17.53;;
13605;SDS011;6874;52.084;5.090;2023-05-29T01:09:27;19.50;;;18.90;;
13605;SDS011;6874;52.084;5.090;2023-05-29T01:11:59;20.07;;;19.47;;
13605;SDS011;6874;52.084;5.090;2023-05-29T01:15:04;17.30;;;16.80;;
13605;SDS011;6874;52.084;5.090;2023-05-29T01:25:29;22.27;;;21.57;;
13605;SDS011;6874;52.084;5.090;2023-05-29T01:28:07;22.17;;;21.47;;
13605;SDS011;6874;52.084;5.090;2023-05-29T01:30:36;21.43;;;20.73;;
13605;SDS011;6874;52.084;5.090;2023-05-29T01:33:02;22.60;;;21.90;;
13605;SDS011;6874;52.084;5.090;2023-05-29T01:35:28;24.13;;;23.33;;
13605;SDS011;6874;52.084;5.090;2023-05-29T01:37:54;24.60;;;23.80;;
13605;SDS011;6874;52.084;5.090;2023-05-29T01:40:19;20.83;;;20.20;;
13605;SDS011;6874;52.084;5.090;2023-05-29T01:42:45;21.00;;;20.33;;
13605;SDS011;6874;52.084;5.090;2023-05-29T01:45:11;21.10;;;20.43;;
13605;SDS011;6874;52.084;5.090;2023-05-29T01:47:38;21.50;;;20.80;;
13605;SDS011;6874;52.084;5.090;2023-05-29T01:50:04;20.37;;;19.73;;
13605;SDS011;6874;52.084;5.090;2023-05-29T01:52:31;19.37;;;18.77;;
13605;SDS011;6874;52.084;5.090;2023-05-29T01:54:57;19.00;;;18.40;;
13605;SDS011;6874;52.084;5.090;2023-05-29T01:57:22;18.57;;;17.97;;
13605;SDS011;6874;52.084;5.090;2023-05-29T01:59:50;18.37;;;17.77;;
13605;SDS011;6874;52.084;5.090;2023-05-29T02:02:15;17.90;;;17.33;;
13605;SDS011;6874;52.084;5.090;2023-05-29T02:04:41;19.10;;;18.50;;
13605;SDS011;6874;52.084;5.090;2023-05-29T02:07:06;19.93;;;19.33;;
13605;SDS011;6874;52.084;5.090;2023-05-29T02:09:32;19.63;;;19.03;;
13605;SDS011;6874;52.084;5.090;2023-05-29T02:11:59;20.87;;;20.23;;
13605;SDS011;6874;52.084;5.090;2023-05-29T02:14:26;18.80;;;18.20;;
13605;SDS011;6874;52.084;5.090;2023-05-29T02:16:52;20.93;;;20.30;;
13605;SDS011;6874;52.084;5.090;2023-05-29T02:19:18;20.83;;;20.17;;
13605;SDS011;6874;52.084;5.090;2023-05-29T02:21:44;23.23;;;22.50;;
13605;SDS011;6874;52.084;5.090;2023-05-29T02:24:11;24.70;;;23.93;;
13605;SDS011;6874;52.084;5.090;2023-05-29T02:26:37;26.40;;;25.57;;
13605;SDS011;6874;52.084;5.090;2023-05-29T02:29:03;29.97;;;29.00;;
13605;SDS011;6874;52.084;5.090;2023-05-29T02:31:30;28.43;;;27.53;;
13605;SDS011;6874;52.084;5.090;2023-05-29T02:33:56;32.67;;;31.63;;
13605;SDS011;6874;52.084;5.090;2023-05-29T02:36:21;33.40;;;32.33;;
13605;SDS011;6874;52.084;5.090;2023-05-29T02:38:47;37.53;;;36.33;;
13605;SDS011;6874;52.084;5.090;2023-05-29T02:41:12;42.57;;;41.20;;
13605;SDS011;6874;52.084;5.090;2023-05-29T02:43:38;41.57;;;40.23;;
13605;SDS011;6874;52.084;5.090;2023-05-29T02:46:04;42.40;;;41.03;;
13605;SDS011;6874;52.084;5.090;2023-05-29T02:48:29;45.20;;;43.70;;
13605;SDS011;6874;52.084;5.090;2023-05-29T02:50:55;52.23;;;50.53;;
13605;SDS011;6874;52.084;5.090;2023-05-29T02:53:20;56.43;;;54.60;;
13605;SDS011;6874;52.084;5.090;2023-05-29T02:55:46;58.93;;;57.00;;
13605;SDS011;6874;52.084;5.090;2023-05-29T02:58:13;58.83;;;56.93;;
13605;SDS011;6874;52.084;5.090;2023-05-29T03:00:38;58.20;;;56.30;;
13605;SDS011;6874;52.084;5.090;2023-05-29T03:03:04;62.07;;;60.03;;
13605;SDS011;6874;52.084;5.090;2023-05-29T03:05:30;60.90;;;58.90;;
13605;SDS011;6874;52.084;5.090;2023-05-29T03:07:55;71.87;;;69.50;;
13605;SDS011;6874;52.084;5.090;2023-05-29T03:10:21;64.87;;;62.77;;
13605;SDS011;6874;52.084;5.090;2023-05-29T03:12:47;61.17;;;59.17;;
13605;SDS011;6874;52.084;5.090;2023-05-29T03:15:12;57.43;;;55.57;;
13605;SDS011;6874;52.084;5.090;2023-05-29T03:17:39;58.63;;;56.70;;
13605;SDS011;6874;52.084;5.090;2023-05-29T03:20:05;59.53;;;57.57;;
13605;SDS011;6874;52.084;5.090;2023-05-29T03:22:31;57.00;;;55.13;;
13605;SDS011;6874;52.084;5.090;2023-05-29T03:24:57;60.20;;;58.20;;
13605;SDS011;6874;52.084;5.090;2023-05-29T03:27:23;54.20;;;52.40;;
13605;SDS011;6874;52.084;5.090;2023-05-29T03:29:48;49.17;;;47.57;;
13605;SDS011;6874;52.084;5.090;2023-05-29T03:32:14;52.23;;;50.50;;
13605;SDS011;6874;52.084;5.090;2023-05-29T03:34:39;49.13;;;47.50;;
13605;SDS011;6874;52.084;5.090;2023-05-29T03:37:05;46.60;;;45.07;;
13605;SDS011;6874;52.084;5.090;2023-05-29T03:39:31;43.13;;;41.73;;
13605;SDS011;6874;52.084;5.090;2023-05-29T03:41:56;42.70;;;41.30;;
13605;SDS011;6874;52.084;5.090;2023-05-29T03:44:22;48.33;;;46.77;;
13605;SDS011;6874;52.084;5.090;2023-05-29T03:46:47;43.13;;;41.73;;
13605;SDS011;6874;52.084;5.090;2023-05-29T03:49:13;38.40;;;37.17;;
13605;SDS011;6874;52.084;5.090;2023-05-29T03:51:39;38.90;;;37.63;;
13605;SDS011;6874;52.084;5.090;2023-05-29T03:54:04;42.00;;;40.63;;
13605;SDS011;6874;52.084;5.090;2023-05-29T03:56:30;37.80;;;36.57;;
13605;SDS011;6874;52.084;5.090;2023-05-29T03:58:56;39.87;;;38.57;;
13605;SDS011;6874;52.084;5.090;2023-05-29T04:01:21;37.87;;;36.63;;
13605;SDS011;6874;52.084;5.090;2023-05-29T04:03:47;39.37;;;38.10;;
13605;SDS011;6874;52.084;5.090;2023-05-29T04:06:13;39.13;;;37.87;;
13605;SDS011;6874;52.084;5.090;2023-05-29T04:08:38;40.20;;;38.90;;
13605;SDS011;6874;52.084;5.090;2023-05-29T04:11:04;37.07;;;35.87;;
13605;SDS011;6874;52.084;5.090;2023-05-29T04:13:29;38.83;;;37.57;;
13605;SDS011;6874;52.084;5.090;2023-05-29T04:15:55;35.27;;;34.13;;
13605;SDS011;6874;52.084;5.090;2023-05-29T04:18:21;36.73;;;35.57;;
13605;SDS011;6874;52.084;5.090;2023-05-29T04:20:46;43.93;;;42.50;;
13605;SDS011;6874;52.084;5.090;2023-05-29T04:23:12;37.70;;;36.47;;
13605;SDS011;6874;52.084;5.090;2023-05-29T04:25:39;38.13;;;36.90;;
13605;SDS011;6874;52.084;5.090;2023-05-29T04:28:05;36.00;;;34.83;;
13605;SDS011;6874;52.084;5.090;2023-05-29T04:30:30;43.17;;;41.77;;
13605;SDS011;6874;52.084;5.090;2023-05-29T04:32:58;42.37;;;41.00;;
13605;SDS011;6874;52.084;5.090;2023-05-29T04:35:24;48.23;;;46.67;;
13605;SDS011;6874;52.084;5.090;2023-05-29T04:37:49;49.77;;;48.17;;
13605;SDS011;6874;52.084;5.090;2023-05-29T04:40:15;47.67;;;46.13;;
13605;SDS011;6874;52.084;5.090;2023-05-29T04:42:42;46.27;;;44.77;;
13605;SDS011;6874;52.084;5.090;2023-05-29T04:45:09;51.30;;;49.63;;
13605;SDS011;6874;52.084;5.090;2023-05-29T04:47:38;47.87;;;46.33;;
13605;SDS011;6874;52.084;5.090;2023-05-29T04:50:15;46.37;;;44.83;;
13605;SDS011;6874;52.084;5.090;2023-05-29T04:52:42;48.73;;;47.13;;
13605;SDS011;6874;52.084;5.090;2023-05-29T04:55:08;48.20;;;46.63;;
13605;SDS011;6874;52.084;5.090;2023-05-29T04:57:35;48.23;;;46.67;;
13605;SDS011;6874;52.084;5.090;2023-05-29T05:00:00;47.57;;;46.03;;
13605;SDS011;6874;52.084;5.090;2023-05-29T05:02:30;46.53;;;45.00;;
13605;SDS011;6874;52.084;5.090;2023-05-29T05:04:55;45.57;;;44.10;;
13605;SDS011;6874;52.084;5.090;2023-05-29T05:07:21;51.90;;;50.23;;
13605;SDS011;6874;52.084;5.090;2023-05-29T05:09:47;44.53;;;43.10;;
13605;SDS011;6874;52.084;5.090;2023-05-29T05:12:12;45.63;;;44.17;;
13605;SDS011;6874;52.084;5.090;2023-05-29T05:14:38;42.43;;;41.07;;
13605;SDS011;6874;52.084;5.090;2023-05-29T05:17:04;41.47;;;40.13;;
13605;SDS011;6874;52.084;5.090;2023-05-29T05:19:29;40.20;;;38.90;;
13605;SDS011;6874;52.084;5.090;2023-05-29T05:21:55;43.40;;;42.00;;
13605;SDS011;6874;52.084;5.090;2023-05-29T05:24:21;40.00;;;38.73;;
13605;SDS011;6874;52.084;5.090;2023-05-29T05:26:46;43.90;;;42.50;;
13605;SDS011;6874;52.084;5.090;2023-05-29T05:29:12;39.90;;;38.63;;
13605;SDS011;6874;52.084;5.090;2023-05-29T05:31:38;46.43;;;44.93;;
13605;SDS011;6874;52.084;5.090;2023-05-29T05:34:04;45.97;;;44.50;;
13605;SDS011;6874;52.084;5.090;2023-05-29T05:36:29;40.47;;;39.17;;
13605;SDS011;6874;52.084;5.090;2023-05-29T05:38:56;43.23;;;41.83;;
13605;SDS011;6874;52.084;5.090;2023-05-29T05:41:21;41.57;;;40.23;;
13605;SDS011;6874;52.084;5.090;2023-05-29T05:43:47;41.90;;;40.57;;
13605;SDS011;6874;52.084;5.090;2023-05-29T05:46:12;38.57;;;37.33;;
13605;SDS011;6874;52.084;5.090;2023-05-29T05:48:39;41.93;;;40.57;;
13605;SDS011;6874;52.084;5.090;2023-05-29T05:51:05;41.73;;;40.40;;
13605;SDS011;6874;52.084;5.090;2023-05-29T05:53:31;42.30;;;40.97;;
13605;SDS011;6874;52.084;5.090;2023-05-29T05:55:56;39.63;;;38.37;;
13605;SDS011;6874;52.084;5.090;2023-05-29T05:58:22;42.30;;;40.97;;
13605;SDS011;6874;52.084;5.090;2023-05-29T06:00:47;45.87;;;44.40;;
13605;SDS011;6874;52.084;5.090;2023-05-29T06:03:13;32.60;;;31.57;;
13605;SDS011;6874;52.084;5.090;2023-05-29T06:05:39;32.97;;;31.90;;
13605;SDS011;6874;52.084;5.090;2023-05-29T06:08:06;37.23;;;36.03;;
13605;SDS011;6874;52.084;5.090;2023-05-29T06:10:33;34.67;;;33.57;;
13605;SDS011;6874;52.084;5.090;2023-05-29T06:12:58;31.07;;;30.07;;
13605;SDS011;6874;52.084;5.090;2023-05-29T06:15:24;32.97;;;31.93;;
13605;SDS011;6874;52.084;5.090;2023-05-29T06:17:49;31.87;;;30.87;;
13605;SDS011;6874;52.084;5.090;2023-05-29T06:20:16;30.57;;;29.57;;
13605;SDS011;6874;52.084;5.090;2023-05-29T06:22:42;29.70;;;28.77;;
13605;SDS011;6874;52.084;5.090;2023-05-29T06:25:08;30.17;;;29.20;;
13605;SDS011;6874;52.084;5.090;2023-05-29T06:27:34;29.17;;;28.27;;
13605;SDS011;6874;52.084;5.090;2023-05-29T06:30:00;27.50;;;26.63;;
13605;SDS011;6874;52.084;5.090;2023-05-29T06:32:25;23.80;;;23.07;;
13605;SDS011;6874;52.084;5.090;2023-05-29T06:34:53;22.80;;;22.10;;
13605;SDS011;6874;52.084;5.090;2023-05-29T06:37:18;21.97;;;21.27;;
13605;SDS011;6874;52.084;5.090;2023-05-29T06:39:44;21.93;;;21.23;;
13605;SDS011;6874;52.084;5.090;2023-05-29T06:42:11;21.70;;;21.00;;
13605;SDS011;6874;52.084;5.090;2023-05-29T06:44:36;22.03;;;21.33;;
13605;SDS011;6874;52.084;5.090;2023-05-29T06:47:02;21.77;;;21.07;;
13605;SDS011;6874;52.084;5.090;2023-05-29T06:49:27;21.07;;;20.40;;
13605;SDS011;6874;52.084;5.090;2023-05-29T06:51:53;21.10;;;20.47;;
13605;SDS011;6874;52.084;5.090;2023-05-29T06:54:18;22.27;;;21.57;;
13605;SDS011;6874;52.084;5.090;2023-05-29T06:56:44;20.83;;;20.20;;
13605;SDS011;6874;52.084;5.090;2023-05-29T06:59:09;19.20;;;18.60;;
13605;SDS011;6874;52.084;5.090;2023-05-29T07:01:35;19.83;;;19.23;;
13605;SDS011;6874;52.084;5.090;2023-05-29T07:04:01;18.90;;;18.30;;
13605;SDS011;6874;52.084;5.090;2023-05-29T07:06:26;18.80;;;18.20;;
13605;SDS011;6874;52.084;5.090;2023-05-29T07:08:52;19.80;;;19.20;;
13605;SDS011;6874;52.084;5.090;2023-05-29T07:11:17;20.87;;;20.23;;
13605;SDS011;6874;52.084;5.090;2023-05-29T07:13:43;19.73;;;19.13;;
13605;SDS011;6874;52.084;5.090;2023-05-29T07:16:09;19.90;;;19.30;;
13605;SDS011;6874;52.084;5.090;2023-05-29T07:18:34;20.10;;;19.50;;
13605;SDS011;6874;52.084;5.090;2023-05-29T07:21:00;19.33;;;18.73;;
13605;SDS011;6874;52.084;5.090;2023-05-29T07:23:26;21.00;;;20.37;;
13605;SDS011;6874;52.084;5.090;2023-05-29T07:25:51;24.00;;;23.23;;
13605;SDS011;6874;52.084;5.090;2023-05-29T07:28:17;22.30;;;21.60;;
13605;SDS011;6874;52.084;5.090;2023-05-29T07:30:43;22.57;;;21.87;;
13605;SDS011;6874;52.084;5.090;2023-05-29T07:33:13;27.17;;;26.30;;
13605;SDS011;6874;52.084;5.090;2023-05-29T07:35:39;28.40;;;27.50;;
13605;SDS011;6874;52.084;5.090;2023-05-29T07:38:08;29.90;;;28.97;;
13605;SDS011;6874;52.084;5.090;2023-05-29T07:40:33;25.37;;;24.57;;
13605;SDS011;6874;52.084;5.090;2023-05-29T07:42:59;22.53;;;21.83;;
13605;SDS011;6874;52.084;5.090;2023-05-29T07:45:24;19.67;;;19.07;;
13605;SDS011;6874;52.084;5.090;2023-05-29T07:47:50;21.73;;;21.07;;
13605;SDS011;6874;52.084;5.090;2023-05-29T07:50:15;17.03;;;16.53;;
13605;SDS011;6874;52.084;5.090;2023-05-29T07:52:42;12.80;;;12.40;;
13605;SDS011;6874;52.084;5.090;2023-05-29T07:55:08;14.83;;;14.40;;
13605;SDS011;6874;52.084;5.090;2023-05-29T07:57:34;17.97;;;17.43;;
13605;SDS011;6874;52.084;5.090;2023-05-29T08:00:01;19.27;;;18.67;;
13605;SDS011;6874;52.084;5.090;2023-05-29T08:02:33;25.50;;;24.70;;
13605;SDS011;6874;52.084;5.090;2023-05-29T08:04:58;34.77;;;33.67;;
13605;SDS011;6874;52.084;5.090;2023-05-29T08:07:24;39.33;;;38.07;;
13605;SDS011;6874;52.084;5.090;2023-05-29T08:09:51;47.27;;;45.73;;
13605;SDS011;6874;52.084;5.090;2023-05-29T08:12:17;48.87;;;47.27;;
13605;SDS011;6874;52.084;5.090;2023-05-29T08:14:42;45.67;;;44.17;;
13605;SDS011;6874;52.084;5.090;2023-05-29T08:17:08;41.83;;;40.43;;
13605;SDS011;6874;52.084;5.090;2023-05-29T08:19:33;38.87;;;37.60;;
13605;SDS011;6874;52.084;5.090;2023-05-29T08:22:00;31.43;;;30.43;;
13605;SDS011;6874;52.084;5.090;2023-05-29T08:24:25;27.37;;;26.50;;
13605;SDS011;6874;52.084;5.090;2023-05-29T08:26:52;25.40;;;24.60;;
13605;SDS011;6874;52.084;5.090;2023-05-29T08:29:20;25.30;;;24.50;;
13605;SDS011;6874;52.084;5.090;2023-05-29T08:31:46;26.67;;;25.83;;
13605;SDS011;6874;52.084;5.090;2023-05-29T08:34:11;31.63;;;30.63;;
13605;SDS011;6874;52.084;5.090;2023-05-29T08:36:37;39.30;;;38.03;;
13605;SDS011;6874;52.084;5.090;2023-05-29T08:39:03;44.80;;;43.33;;
13605;SDS011;6874;52.084;5.090;2023-05-29T08:44:13;42.83;;;41.47;;
13605;SDS011;6874;52.084;5.090;2023-05-29T08:46:41;45.97;;;44.47;;
13605;SDS011;6874;52.084;5.090;2023-05-29T08:49:09;35.83;;;34.67;;
13605;SDS011;6874;52.084;5.090;2023-05-29T08:51:39;33.00;;;31.93;;
13605;SDS011;6874;52.084;5.090;2023-05-29T08:54:08;25.17;;;24.37;;
13605;SDS011;6874;52.084;5.090;2023-05-29T08:56:35;22.00;;;21.30;;
13605;SDS011;6874;52.084;5.090;2023-05-29T08:59:01;28.00;;;27.10;;
13605;SDS011;6874;52.084;5.090;2023-05-29T09:01:27;33.23;;;32.13;;
13605;SDS011;6874;52.084;5.090;2023-05-29T09:03:55;40.43;;;39.07;;
13605;SDS011;6874;52.084;5.090;2023-05-29T09:06:21;47.87;;;46.17;;
13605;SDS011;6874;52.084;5.090;2023-05-29T09:08:50;52.33;;;50.53;;
13605;SDS011;6874;52.084;5.090;2023-05-29T09:11:17;38.63;;;37.33;;
13605;SDS011;6874;52.084;5.090;2023-05-29T09:13:42;43.40;;;41.93;;
13605;SDS011;6874;52.084;5.090;2023-05-29T09:16:08;50.57;;;48.87;;
13605;SDS011;6874;52.084;5.090;2023-05-29T09:18:35;51.90;;;50.13;;
13605;SDS011;6874;52.084;5.090;2023-05-29T09:21:02;54.93;;;53.03;;
13605;SDS011;6874;52.084;5.090;2023-05-29T09:23:33;58.03;;;56.03;;
13605;SDS011;6874;52.084;5.090;2023-05-29T09:26:01;49.43;;;47.73;;
13605;SDS011;6874;52.084;5.090;2023-05-29T09:28:27;50.47;;;48.73;;
13605;SDS011;6874;52.084;5.090;2023-05-29T09:30:56;47.07;;;45.47;;
13605;SDS011;6874;52.084;5.090;2023-05-29T09:33:22;46.67;;;45.07;;
13605;SDS011;6874;52.084;5.090;2023-05-29T09:35:48;46.73;;;45.13;;
13605;SDS011;6874;52.084;5.090;2023-05-29T09:38:15;42.93;;;41.50;;
13605;SDS011;6874;52.084;5.090;2023-05-29T09:40:42;36.83;;;35.63;;
13605;SDS011;6874;52.084;5.090;2023-05-29T09:43:11;32.17;;;31.17;;
13605;SDS011;6874;52.084;5.090;2023-05-29T09:45:42;26.90;;;26.00;;
13605;SDS011;6874;52.084;5.090;2023-05-29T09:48:19;24.77;;;23.97;;
13605;SDS011;6874;52.084;5.090;2023-05-29T09:50:48;20.00;;;19.40;;
13605;SDS011;6874;52.084;5.090;2023-05-29T09:53:24;19.07;;;18.47;;
13605;SDS011;6874;52.084;5.090;2023-05-29T09:55:51;18.40;;;17.80;;
13605;SDS011;6874;52.084;5.090;2023-05-29T09:58:18;18.43;;;17.83;;
13605;SDS011;6874;52.084;5.090;2023-05-29T10:00:44;17.50;;;17.00;;
13605;SDS011;6874;52.084;5.090;2023-05-29T10:03:10;18.50;;;17.90;;
13605;SDS011;6874;52.084;5.090;2023-05-29T10:05:39;16.77;;;16.27;;
13605;SDS011;6874;52.084;5.090;2023-05-29T10:08:11;19.00;;;18.40;;
13605;SDS011;6874;52.084;5.090;2023-05-29T10:10:42;22.07;;;21.37;;
13605;SDS011;6874;52.084;5.090;2023-05-29T10:13:11;20.53;;;19.90;;
13605;SDS011;6874;52.084;5.090;2023-05-29T10:15:41;16.70;;;16.20;;
13605;SDS011;6874;52.084;5.090;2023-05-29T10:18:13;13.90;;;13.50;;
13605;SDS011;6874;52.084;5.090;2023-05-29T10:20:45;13.17;;;12.77;;
13605;SDS011;6874;52.084;5.090;2023-05-29T10:23:16;10.57;;;10.27;;
13605;SDS011;6874;52.084;5.090;2023-05-29T10:25:43;10.93;;;10.63;;
13605;SDS011;6874;52.084;5.090;2023-05-29T10:28:13;6.63;;;6.43;;
13605;SDS011;6874;52.084;5.090;2023-05-29T10:30:39;6.00;;;5.80;;
13605;SDS011;6874;52.084;5.090;2023-05-29T10:33:28;6.33;;;6.13;;
13605;SDS011;6874;52.084;5.090;2023-05-29T10:36:12;6.50;;;6.30;;
13605;SDS011;6874;52.084;5.090;2023-05-29T10:38:41;6.30;;;6.10;;
13605;SDS011;6874;52.084;5.090;2023-05-29T10:41:31;6.67;;;6.47;;
13605;SDS011;6874;52.084;5.090;2023-05-29T10:43:58;6.83;;;6.63;;
13605;SDS011;6874;52.084;5.090;2023-05-29T10:47:07;7.87;;;7.67;;
13605;SDS011;6874;52.084;5.090;2023-05-29T10:51:46;8.37;;;8.17;;
13605;SDS011;6874;52.084;5.090;2023-05-29T10:54:13;8.53;;;8.30;;
13605;SDS011;6874;52.084;5.090;2023-05-29T10:56:39;9.23;;;8.93;;
13605;SDS011;6874;52.084;5.090;2023-05-29T10:59:06;9.77;;;9.47;;
13605;SDS011;6874;52.084;5.090;2023-05-29T11:01:33;11.03;;;10.73;;
13605;SDS011;6874;52.084;5.090;2023-05-29T11:04:42;10.13;;;9.83;;
13605;SDS011;6874;52.084;5.090;2023-05-29T11:06:51;9.30;;;9.00;;
13605;SDS011;6874;52.084;5.090;2023-05-29T11:12:08;10.70;;;10.40;;
13605;SDS011;6874;52.084;5.090;2023-05-29T11:14:46;10.87;;;10.57;;
13605;SDS011;6874;52.084;5.090;2023-05-29T11:17:30;11.33;;;11.03;;
13605;SDS011;6874;52.084;5.090;2023-05-29T11:20:06;12.07;;;11.70;;
13605;SDS011;6874;52.084;5.090;2023-05-29T11:22:53;15.23;;;14.73;;
13605;SDS011;6874;52.084;5.090;2023-05-29T11:25:24;19.00;;;18.40;;
13605;SDS011;6874;52.084;5.090;2023-05-29T11:27:50;27.23;;;26.37;;
13605;SDS011;6874;52.084;5.090;2023-05-29T11:30:19;38.80;;;37.57;;
13605;SDS011;6874;52.084;5.090;2023-05-29T11:32:46;44.73;;;43.30;;
13605;SDS011;6874;52.084;5.090;2023-05-29T11:35:12;48.47;;;46.90;;
13605;SDS011;6874;52.084;5.090;2023-05-29T11:37:39;42.53;;;41.13;;
13605;SDS011;6874;52.084;5.090;2023-05-29T11:40:11;43.90;;;42.50;;
13605;SDS011;6874;52.084;5.090;2023-05-29T11:42:44;45.10;;;43.67;;
13605;SDS011;6874;52.084;5.090;2023-05-29T11:45:15;52.33;;;50.63;;
13605;SDS011;6874;52.084;5.090;2023-05-29T11:47:51;61.90;;;59.90;;
13605;SDS011;6874;52.084;5.090;2023-05-29T11:50:26;70.63;;;68.33;;
13605;SDS011;6874;52.084;5.090;2023-05-29T11:52:53;69.23;;;67.03;;
13605;SDS011;6874;52.084;5.090;2023-05-29T11:55:21;70.13;;;67.87;;
13605;SDS011;6874;52.084;5.090;2023-05-29T11:57:49;69.27;;;67.03;;
13605;SDS011;6874;52.084;5.090;2023-05-29T12:00:18;55.37;;;53.57;;
13605;SDS011;6874;52.084;5.090;2023-05-29T12:02:47;46.40;;;44.90;;
13605;SDS011;6874;52.084;5.090;2023-05-29T12:05:14;44.07;;;42.67;;
13605;SDS011;6874;52.084;5.090;2023-05-29T12:07:50;36.60;;;35.40;;
13605;SDS011;6874;52.084;5.090;2023-05-29T12:10:18;33.83;;;32.73;;
13605;SDS011;6874;52.084;5.090;2023-05-29T12:12:49;35.20;;;34.07;;
13605;SDS011;6874;52.084;5.090;2023-05-29T12:15:16;31.73;;;30.73;;
13605;SDS011;6874;52.084;5.090;2023-05-29T12:17:43;36.73;;;35.57;;
13605;SDS011;6874;52.084;5.090;2023-05-29T12:20:10;38.30;;;37.07;;
13605;SDS011;6874;52.084;5.090;2023-05-29T12:22:37;34.77;;;33.67;;
13605;SDS011;6874;52.084;5.090;2023-05-29T12:25:07;40.57;;;39.27;;
13605;SDS011;6874;52.084;5.090;2023-05-29T12:27:38;39.07;;;37.83;;
13605;SDS011;6874;52.084;5.090;2023-05-29T12:30:11;44.10;;;42.70;;
13605;SDS011;6874;52.084;5.090;2023-05-29T12:32:42;42.43;;;41.03;;
13605;SDS011;6874;52.084;5.090;2023-05-29T12:35:19;44.83;;;43.33;;
13605;SDS011;6874;52.084;5.090;2023-05-29T12:37:46;45.20;;;43.70;;
13605;SDS011;6874;52.084;5.090;2023-05-29T12:40:15;41.43;;;40.13;;
13605;SDS011;6874;52.084;5.090;2023-05-29T12:42:41;39.73;;;38.43;;
13605;SDS011;6874;52.084;5.090;2023-05-29T12:45:07;102.07;;;98.73;;
13605;SDS011;6874;52.084;5.090;2023-05-29T12:47:33;101.07;;;97.80;;
13605;SDS011;6874;52.084;5.090;2023-05-29T12:49:59;103.17;;;99.80;;
13605;SDS011;6874;52.084;5.090;2023-05-29T12:52:25;100.13;;;96.87;;
13605;SDS011;6874;52.084;5.090;2023-05-29T12:54:50;89.43;;;86.53;;
13605;SDS011;6874;52.084;5.090;2023-05-29T12:57:16;87.30;;;84.47;;
13605;SDS011;6874;52.084;5.090;2023-05-29T12:59:41;87.07;;;84.23;;
13605;SDS011;6874;52.084;5.090;2023-05-29T13:02:07;83.20;;;80.50;;
13605;SDS011;6874;52.084;5.090;2023-05-29T13:04:33;81.70;;;79.07;;
13605;SDS011;6874;52.084;5.090;2023-05-29T13:06:59;82.70;;;80.03;;
13605;SDS011;6874;52.084;5.090;2023-05-29T13:09:24;92.33;;;89.37;;
13605;SDS011;6874;52.084;5.090;2023-05-29T13:11:50;92.27;;;89.27;;
13605;SDS011;6874;52.084;5.090;2023-05-29T13:14:15;97.30;;;94.17;;
13605;SDS011;6874;52.084;5.090;2023-05-29T13:16:41;96.77;;;93.63;;
13605;SDS011;6874;52.084;5.090;2023-05-29T13:19:06;93.13;;;90.13;;
13605;SDS011;6874;52.084;5.090;2023-05-29T13:21:32;96.80;;;93.67;;
13605;SDS011;6874;52.084;5.090;2023-05-29T13:23:58;96.93;;;93.80;;
13605;SDS011;6874;52.084;5.090;2023-05-29T13:26:23;86.53;;;83.77;;
13605;SDS011;6874;52.084;5.090;2023-05-29T13:28:50;89.40;;;86.53;;
13605;SDS011;6874;52.084;5.090;2023-05-29T13:31:16;92.83;;;89.83;;
13605;SDS011;6874;52.084;5.090;2023-05-29T13:33:42;91.70;;;88.73;;
13605;SDS011;6874;52.084;5.090;2023-05-29T13:36:08;92.37;;;89.40;;
13605;SDS011;6874;52.084;5.090;2023-05-29T13:38:34;91.83;;;88.87;;
13605;SDS011;6874;52.084;5.090;2023-05-29T13:40:59;89.30;;;86.43;;
13605;SDS011;6874;52.084;5.090;2023-05-29T13:43:25;84.73;;;82.00;;
13605;SDS011;6874;52.084;5.090;2023-05-29T13:45:50;79.97;;;77.40;;
13605;SDS011;6874;52.084;5.090;2023-05-29T13:48:16;82.03;;;79.40;;
13605;SDS011;6874;52.084;5.090;2023-05-29T13:50:41;85.00;;;82.27;;
13605;SDS011;6874;52.084;5.090;2023-05-29T13:53:07;79.80;;;77.23;;
13605;SDS011;6874;52.084;5.090;2023-05-29T13:55:32;88.83;;;85.97;;
13605;SDS011;6874;52.084;5.090;2023-05-29T13:57:58;85.20;;;82.47;;
13605;SDS011;6874;52.084;5.090;2023-05-29T14:00:23;90.80;;;87.87;;
13605;SDS011;6874;52.084;5.090;2023-05-29T14:02:49;97.03;;;93.93;;
13605;SDS011;6874;52.084;5.090;2023-05-29T14:05:15;102.80;;;99.47;;
13605;SDS011;6874;52.084;5.090;2023-05-29T14:07:40;108.00;;;104.50;;
13605;SDS011;6874;52.084;5.090;2023-05-29T14:10:06;115.87;;;112.13;;
13605;SDS011;6874;52.084;5.090;2023-05-29T14:12:32;125.20;;;121.13;;
13605;SDS011;6874;52.084;5.090;2023-05-29T14:14:57;119.43;;;115.57;;
13605;SDS011;6874;52.084;5.090;2023-05-29T14:17:23;123.53;;;119.53;;
13605;SDS011;6874;52.084;5.090;2023-05-29T14:19:48;114.23;;;110.53;;
13605;SDS011;6874;52.084;5.090;2023-05-29T14:22:17;110.23;;;106.63;;
13605;SDS011;6874;52.084;5.090;2023-05-29T14:24:43;101.63;;;98.33;;
13605;SDS011;6874;52.084;5.090;2023-05-29T14:27:08;93.37;;;90.37;;
13605;SDS011;6874;52.084;5.090;2023-05-29T14:29:34;92.03;;;89.03;;
13605;SDS011;6874;52.084;5.090;2023-05-29T14:31:59;93.47;;;90.47;;
13605;SDS011;6874;52.084;5.090;2023-05-29T14:34:25;88.00;;;85.17;;
13605;SDS011;6874;52.084;5.090;2023-05-29T14:36:50;78.90;;;76.33;;
13605;SDS011;6874;52.084;5.090;2023-05-29T14:39:16;76.10;;;73.60;;
13605;SDS011;6874;52.084;5.090;2023-05-29T14:41:42;99.53;;;96.33;;
13605;SDS011;6874;52.084;5.090;2023-05-29T14:44:08;87.87;;;85.03;;
13605;SDS011;6874;52.084;5.090;2023-05-29T14:46:34;78.80;;;76.23;;
13605;SDS011;6874;52.084;5.090;2023-05-29T14:49:00;71.43;;;69.13;;
13605;SDS011;6874;52.084;5.090;2023-05-29T14:51:26;70.40;;;68.10;;